createdAt,value
2017-08-15T00:01:45.960Z,3.50
2017-08-15T00:04:14.283Z,4.00
2017-08-15T00:06:41.800Z,3.70
2017-08-15T00:09:10.133Z,3.90
2017-08-15T00:11:37.648Z,3.80
2017-08-15T00:14:05.166Z,4.20
2017-08-15T00:16:32.691Z,3.33
2017-08-15T00:19:00.191Z,3.50
2017-08-15T00:21:27.751Z,3.93
2017-08-15T00:23:55.272Z,3.97
2017-08-15T00:26:22.801Z,3.60
2017-08-15T00:28:51.195Z,3.90
2017-08-15T00:31:18.721Z,3.67
2017-08-15T00:33:47.039Z,3.30
2017-08-15T00:36:14.552Z,3.23
2017-08-15T00:38:42.143Z,4.43
2017-08-15T00:41:09.659Z,3.30
2017-08-15T00:43:37.943Z,3.87
2017-08-15T00:46:05.484Z,4.40
2017-08-15T00:48:33.007Z,4.13
2017-08-15T00:51:00.572Z,4.17
2017-08-15T00:53:28.087Z,4.20
2017-08-15T00:55:55.611Z,3.83
2017-08-15T00:58:23.137Z,3.90
2017-08-15T01:00:50.658Z,3.83
2017-08-15T01:03:18.205Z,3.70
2017-08-15T01:05:45.723Z,3.80
2017-08-15T01:08:13.245Z,3.70
2017-08-15T01:10:40.795Z,4.00
2017-08-15T01:13:08.312Z,3.57
2017-08-15T01:15:35.824Z,3.40
2017-08-15T01:18:03.383Z,4.20
2017-08-15T01:20:30.904Z,4.00
2017-08-15T01:22:58.417Z,4.00
2017-08-15T01:25:25.957Z,4.83
2017-08-15T01:27:53.527Z,4.40
2017-08-15T01:30:21.062Z,4.30
2017-08-15T01:32:48.579Z,3.80
2017-08-15T01:35:16.128Z,4.20
2017-08-15T01:37:49.517Z,4.60
2017-08-15T01:40:17.077Z,4.90
2017-08-15T01:42:44.595Z,4.30
2017-08-15T01:45:12.141Z,4.67
2017-08-15T01:47:39.656Z,3.97
2017-08-15T01:50:07.992Z,3.97
2017-08-15T01:52:35.523Z,4.27
2017-08-15T01:55:03.045Z,5.00
2017-08-15T01:57:30.606Z,4.20
2017-08-15T01:59:58.126Z,4.10
2017-08-15T02:02:25.648Z,4.10
2017-08-15T02:04:53.196Z,4.47
2017-08-15T02:07:20.714Z,4.50
2017-08-15T02:09:48.275Z,4.20
2017-08-15T02:12:15.811Z,4.40
2017-08-15T02:14:43.325Z,4.10
2017-08-15T02:17:10.888Z,4.10
2017-08-15T02:19:38.455Z,4.20
2017-08-15T02:22:05.980Z,5.23
2017-08-15T02:24:33.491Z,5.00
2017-08-15T02:27:01.050Z,4.37
2017-08-15T02:29:28.571Z,4.00
2017-08-15T02:31:56.088Z,4.47
2017-08-15T02:34:23.644Z,4.43
2017-08-15T02:36:51.184Z,4.57
2017-08-15T02:39:18.696Z,4.43
2017-08-15T02:41:46.303Z,4.33
2017-08-15T02:44:13.831Z,4.77
2017-08-15T02:46:41.359Z,4.50
2017-08-15T02:49:08.913Z,4.47
2017-08-15T02:51:37.208Z,4.37
2017-08-15T02:54:04.753Z,4.37
2017-08-15T02:56:33.068Z,3.73
2017-08-15T02:59:00.605Z,4.30
2017-08-15T03:01:28.172Z,4.70
2017-08-15T03:03:55.689Z,3.97
2017-08-15T03:06:23.204Z,4.20
2017-08-15T03:08:50.761Z,4.30
2017-08-15T03:11:18.283Z,4.03
2017-08-15T03:13:45.824Z,4.40
2017-08-15T03:16:13.362Z,4.00
2017-08-15T03:18:40.908Z,4.47
2017-08-15T03:21:08.428Z,4.20
2017-08-15T03:23:36.016Z,3.87
2017-08-15T03:26:03.537Z,4.33
2017-08-15T03:28:31.058Z,3.93
2017-08-15T03:30:58.624Z,4.00
2017-08-15T03:33:26.151Z,3.90
2017-08-15T03:35:53.716Z,4.30
2017-08-15T03:38:21.221Z,4.67
2017-08-15T03:40:49.512Z,5.13
2017-08-15T03:43:17.067Z,4.50
2017-08-15T03:45:44.579Z,4.30
2017-08-15T03:48:12.097Z,4.80
2017-08-15T03:50:39.659Z,4.03
2017-08-15T03:53:07.169Z,4.23
2017-08-15T03:55:34.684Z,4.30
2017-08-15T03:58:02.232Z,4.70
2017-08-15T04:00:29.755Z,4.70
2017-08-15T04:02:57.310Z,4.67
2017-08-15T04:05:24.831Z,5.33
2017-08-15T04:07:52.388Z,4.93
2017-08-15T04:10:19.894Z,4.53
2017-08-15T04:12:47.417Z,4.27
2017-08-15T04:15:14.962Z,4.80
2017-08-15T04:17:42.468Z,4.73
2017-08-15T04:20:10.032Z,4.53
2017-08-15T04:22:37.548Z,4.50
2017-08-15T04:25:05.112Z,4.07
2017-08-15T04:27:32.628Z,4.20
2017-08-15T04:30:00.144Z,4.20
2017-08-15T04:32:27.691Z,4.80
2017-08-15T04:34:55.230Z,4.20
2017-08-15T04:37:22.741Z,4.90
2017-08-15T04:39:50.292Z,3.80
2017-08-15T04:42:17.804Z,4.30
2017-08-15T04:44:45.318Z,4.10
2017-08-15T04:47:12.872Z,3.97
2017-08-15T04:49:40.388Z,3.90
2017-08-15T04:52:08.694Z,3.70
2017-08-15T04:54:36.219Z,3.40
2017-08-15T04:57:04.533Z,3.70
2017-08-15T04:59:32.045Z,3.87
2017-08-15T05:02:00.381Z,3.80
2017-08-15T05:04:27.919Z,3.63
2017-08-15T05:06:55.431Z,3.10
2017-08-15T05:09:22.979Z,3.10
2017-08-15T05:11:50.554Z,3.30
2017-08-15T05:14:18.068Z,2.73
2017-08-15T05:16:45.729Z,2.80
2017-08-15T05:19:13.278Z,2.47
2017-08-15T05:21:40.807Z,3.47
2017-08-15T05:24:08.368Z,3.03
2017-08-15T05:26:35.900Z,2.70
2017-08-15T05:29:03.416Z,3.03
2017-08-15T05:31:30.971Z,2.70
2017-08-15T05:33:58.487Z,2.80
2017-08-15T05:36:26.004Z,3.23
2017-08-15T05:38:53.568Z,3.00
2017-08-15T05:41:21.100Z,3.37
2017-08-15T05:43:48.611Z,2.90
2017-08-15T05:46:16.931Z,2.93
2017-08-15T05:48:44.451Z,3.00
2017-08-15T05:51:12.737Z,2.83
2017-08-15T05:53:40.284Z,2.80
2017-08-15T05:56:07.840Z,2.93
2017-08-15T05:58:36.167Z,3.20
2017-08-15T06:01:03.685Z,2.60
2017-08-15T06:03:31.196Z,2.53
2017-08-15T06:05:58.755Z,2.60
2017-08-15T06:08:26.268Z,2.60
2017-08-15T06:10:53.801Z,2.43
2017-08-15T06:13:21.363Z,2.43
2017-08-15T06:15:48.875Z,3.20
2017-08-15T06:18:16.397Z,2.60
2017-08-15T06:20:43.973Z,2.50
2017-08-15T06:23:11.487Z,2.30
2017-08-15T06:25:39.041Z,2.07
2017-08-15T06:28:07.358Z,2.70
2017-08-15T06:30:34.870Z,2.60
2017-08-15T06:33:02.428Z,2.40
2017-08-15T06:35:30.081Z,2.50
2017-08-15T06:37:57.637Z,2.97
2017-08-15T06:40:25.206Z,2.80
2017-08-15T06:42:53.592Z,2.27
2017-08-15T06:45:21.121Z,2.50
2017-08-15T06:47:48.637Z,2.70
2017-08-15T06:50:16.224Z,2.63
2017-08-15T06:52:43.728Z,2.40
2017-08-15T06:55:11.272Z,2.50
2017-08-15T06:57:38.789Z,2.53
2017-08-15T07:00:06.355Z,2.73
2017-08-15T07:02:33.875Z,2.20
2017-08-15T07:05:01.396Z,2.27
2017-08-15T07:07:28.940Z,2.60
2017-08-15T07:09:56.587Z,2.17
2017-08-15T07:12:24.116Z,2.30
2017-08-15T07:14:51.641Z,2.00
2017-08-15T07:17:19.223Z,2.30
2017-08-15T07:19:46.766Z,2.47
2017-08-15T07:22:14.358Z,2.47
2017-08-15T07:24:41.882Z,2.50
2017-08-15T07:27:09.396Z,2.33
2017-08-15T07:29:36.957Z,2.17
2017-08-15T07:32:04.480Z,2.27
2017-08-15T07:34:32.012Z,2.47
2017-08-15T07:36:59.573Z,2.47
2017-08-15T07:39:27.088Z,2.80
2017-08-15T07:41:54.628Z,2.37
2017-08-15T07:44:22.193Z,2.10
2017-08-15T07:46:49.713Z,2.30
2017-08-15T07:49:17.259Z,2.40
2017-08-15T07:51:44.820Z,2.30
2017-08-15T07:54:12.340Z,2.30
2017-08-15T07:56:39.861Z,2.57
2017-08-15T07:59:07.423Z,2.10
2017-08-15T08:01:34.964Z,2.27
2017-08-15T08:04:02.482Z,2.00
2017-08-15T08:06:30.028Z,2.13
2017-08-15T08:08:57.653Z,2.33
2017-08-15T08:11:25.211Z,2.17
2017-08-15T08:13:52.729Z,2.30
2017-08-15T08:16:20.239Z,2.53
2017-08-15T08:18:47.776Z,2.47
2017-08-15T08:21:15.304Z,2.10
2017-08-15T08:23:43.628Z,2.27
2017-08-15T08:26:11.276Z,2.40
2017-08-15T08:28:38.861Z,2.50
2017-08-15T08:31:06.381Z,2.37
2017-08-15T08:33:33.903Z,2.37
2017-08-15T08:36:01.475Z,2.43
2017-08-15T08:38:28.994Z,2.57
2017-08-15T08:40:56.507Z,2.13
2017-08-15T08:43:24.067Z,2.03
2017-08-15T08:45:51.580Z,2.20
2017-08-15T08:48:19.091Z,2.10
2017-08-15T08:50:46.669Z,1.90
2017-08-15T08:53:14.190Z,1.90
2017-08-15T08:55:41.751Z,2.17
2017-08-15T08:58:09.332Z,1.97
2017-08-15T09:00:36.849Z,1.97
2017-08-15T09:03:04.407Z,1.97
2017-08-15T09:05:31.940Z,1.63
2017-08-15T09:08:00.295Z,1.77
2017-08-15T09:10:27.844Z,2.30
2017-08-15T09:12:55.366Z,2.00
2017-08-15T09:15:22.916Z,1.90
2017-08-15T09:17:50.432Z,2.40
2017-08-15T09:20:17.939Z,2.23
2017-08-15T09:22:45.499Z,2.20
2017-08-15T09:25:13.035Z,2.47
2017-08-15T09:27:41.332Z,2.20
2017-08-15T09:30:08.888Z,2.70
2017-08-15T09:32:36.411Z,1.90
2017-08-15T09:35:03.947Z,2.43
2017-08-15T09:37:31.515Z,1.97
2017-08-15T09:39:59.031Z,2.13
2017-08-15T09:42:26.556Z,2.00
2017-08-15T09:44:54.117Z,1.87
2017-08-15T09:47:22.401Z,2.47
2017-08-15T09:49:49.987Z,1.87
2017-08-15T09:52:17.515Z,2.47
2017-08-15T09:54:45.027Z,2.53
2017-08-15T09:57:12.570Z,2.00
2017-08-15T09:59:40.095Z,1.90
2017-08-15T10:02:07.659Z,2.30
2017-08-15T10:04:35.200Z,2.30
2017-08-15T10:07:02.735Z,2.17
2017-08-15T10:09:30.298Z,2.07
2017-08-15T10:11:57.809Z,2.13
2017-08-15T10:14:25.341Z,2.27
2017-08-15T10:16:52.893Z,2.30
2017-08-15T10:19:20.444Z,2.10
2017-08-15T10:21:48.013Z,2.57
2017-08-15T10:24:15.532Z,2.27
2017-08-15T10:26:43.081Z,2.37
2017-08-15T10:29:10.642Z,2.30
2017-08-15T10:31:38.173Z,2.30
2017-08-15T10:34:05.697Z,2.33
2017-08-15T10:36:33.247Z,2.20
2017-08-15T10:39:00.768Z,2.60
2017-08-15T10:41:28.356Z,2.10
2017-08-15T10:43:55.879Z,2.17
2017-08-15T10:46:23.433Z,2.10
2017-08-15T10:48:50.940Z,2.20
2017-08-15T10:51:18.460Z,2.30
2017-08-15T10:53:46.005Z,2.20
2017-08-15T10:56:13.556Z,2.30
2017-08-15T10:58:41.095Z,2.13
2017-08-15T11:01:08.627Z,2.20
2017-08-15T11:03:36.980Z,2.30
2017-08-15T11:06:04.491Z,2.20
2017-08-15T11:08:32.008Z,2.20
2017-08-15T11:10:59.560Z,1.90
2017-08-15T11:13:27.083Z,1.90
2017-08-15T11:15:54.592Z,1.77
2017-08-15T11:18:22.168Z,2.33
2017-08-15T11:20:49.688Z,1.90
2017-08-15T11:23:17.966Z,2.00
2017-08-15T11:25:45.511Z,1.83
2017-08-15T11:28:13.026Z,2.00
2017-08-15T11:30:40.612Z,1.90
2017-08-15T11:33:08.150Z,1.97
2017-08-15T11:35:35.668Z,2.03
2017-08-15T11:38:03.216Z,2.17
2017-08-15T11:40:30.729Z,2.30
2017-08-15T11:42:58.287Z,2.13
2017-08-15T11:45:25.811Z,2.30
2017-08-15T11:47:53.355Z,2.30
2017-08-15T11:50:20.877Z,2.00
2017-08-15T11:52:48.443Z,2.10
2017-08-15T11:55:15.984Z,2.17
2017-08-15T11:57:43.497Z,1.90
2017-08-15T12:00:11.044Z,2.73
2017-08-15T12:02:38.608Z,2.20
2017-08-15T12:05:06.133Z,2.20
2017-08-15T12:07:34.432Z,2.40
2017-08-15T12:10:02.749Z,2.20
2017-08-15T12:12:30.276Z,2.20
2017-08-15T12:14:57.788Z,2.30
2017-08-15T12:17:25.353Z,2.50
2017-08-15T12:19:52.869Z,2.40
2017-08-15T12:22:20.404Z,2.40
2017-08-15T12:24:47.951Z,2.50
2017-08-15T12:27:15.472Z,2.33
2017-08-15T12:29:43.015Z,1.93
2017-08-15T12:32:10.536Z,2.30
2017-08-15T12:34:38.048Z,2.40
2017-08-15T12:37:05.617Z,2.50
2017-08-15T12:39:33.131Z,2.47
2017-08-15T12:42:00.646Z,2.40
2017-08-15T12:44:28.210Z,2.67
2017-08-15T12:46:55.740Z,2.53
2017-08-15T12:49:23.256Z,2.50
2017-08-15T12:51:50.806Z,2.40
2017-08-15T12:54:18.323Z,2.40
2017-08-15T12:56:46.650Z,2.20
2017-08-15T12:59:14.156Z,2.10
2017-08-15T13:01:42.437Z,2.30
2017-08-15T13:04:09.988Z,2.47
2017-08-15T13:06:37.511Z,2.20
2017-08-15T13:09:05.056Z,2.13
2017-08-15T13:11:32.576Z,2.40
2017-08-15T13:14:00.123Z,2.30
2017-08-15T13:16:27.676Z,2.50
2017-08-15T13:18:55.952Z,2.37
2017-08-15T13:21:24.264Z,2.57
2017-08-15T13:23:51.787Z,2.70
2017-08-15T13:26:19.334Z,2.60
2017-08-15T13:28:46.875Z,2.67
2017-08-15T13:31:14.438Z,2.37
2017-08-15T13:33:41.962Z,2.60
2017-08-15T13:36:09.525Z,2.57
2017-08-15T13:38:37.048Z,2.30
2017-08-15T13:41:04.564Z,2.50
2017-08-15T13:43:32.104Z,2.40
2017-08-15T13:45:59.615Z,2.43
2017-08-15T13:48:27.921Z,2.67
2017-08-15T13:50:55.431Z,2.00
2017-08-15T13:53:22.956Z,2.53
2017-08-15T13:55:50.471Z,2.67
2017-08-15T13:58:18.030Z,3.00
2017-08-15T14:00:45.548Z,2.43
2017-08-15T14:03:13.055Z,2.33
2017-08-15T14:05:40.606Z,2.60
2017-08-15T14:08:08.163Z,2.47
2017-08-15T14:10:35.724Z,2.43
2017-08-15T14:13:03.243Z,2.40
2017-08-15T14:15:30.767Z,2.30
2017-08-15T14:17:58.332Z,2.70
2017-08-15T14:20:25.844Z,2.87
2017-08-15T14:22:53.356Z,2.40
2017-08-15T14:25:20.904Z,2.77
2017-08-15T14:27:48.423Z,2.20
2017-08-15T14:30:15.976Z,2.53
2017-08-15T14:32:43.509Z,2.93
2017-08-15T14:35:11.820Z,2.50
2017-08-15T14:37:39.365Z,2.83
2017-08-15T14:40:06.875Z,2.50
2017-08-15T14:42:34.418Z,2.83
2017-08-15T14:45:01.964Z,2.53
2017-08-15T14:47:29.476Z,2.33
2017-08-15T14:49:57.800Z,2.40
2017-08-15T14:52:25.351Z,2.40
2017-08-15T14:54:52.883Z,2.40
2017-08-15T14:57:20.436Z,2.57
2017-08-15T14:59:48.717Z,2.30
2017-08-15T15:02:16.303Z,2.93
2017-08-15T15:04:43.816Z,2.93
2017-08-15T15:07:12.088Z,2.20
2017-08-15T15:09:39.627Z,2.30
2017-08-15T15:12:07.136Z,2.60
2017-08-15T15:14:34.684Z,2.50
2017-08-15T15:17:02.199Z,2.70
2017-08-15T15:19:29.743Z,2.80
2017-08-15T15:21:57.300Z,2.40
2017-08-15T15:24:24.813Z,2.50
2017-08-15T15:26:52.357Z,2.67
2017-08-15T15:29:20.636Z,2.47
2017-08-15T15:31:48.952Z,2.77
2017-08-15T15:34:16.465Z,2.70
2017-08-15T15:36:44.776Z,2.67
2017-08-15T15:39:12.299Z,2.50
2017-08-15T15:41:40.604Z,2.50
2017-08-15T15:44:08.113Z,2.77
2017-08-15T15:46:35.672Z,2.63
2017-08-15T15:49:03.192Z,2.60
2017-08-15T15:51:30.733Z,2.43
2017-08-15T15:53:58.283Z,2.33
2017-08-15T15:56:25.791Z,2.70
2017-08-15T15:58:53.310Z,2.70
2017-08-15T16:01:20.880Z,2.63
2017-08-15T16:03:48.391Z,2.60
2017-08-15T16:06:16.680Z,2.87
2017-08-15T16:08:44.221Z,2.43
2017-08-15T16:11:11.740Z,2.60
2017-08-15T16:13:39.284Z,2.57
2017-08-15T16:16:06.800Z,2.80
2017-08-15T16:18:35.115Z,2.67
2017-08-15T16:21:02.658Z,3.03
2017-08-15T16:23:30.237Z,3.30
2017-08-15T16:25:57.767Z,2.57
2017-08-15T16:28:25.332Z,3.30
2017-08-15T16:30:52.884Z,2.77
2017-08-15T16:33:20.460Z,2.30
2017-08-15T16:35:47.977Z,2.40
2017-08-15T16:38:16.252Z,3.07
2017-08-15T16:40:43.800Z,2.80
2017-08-15T16:43:12.133Z,2.87
2017-08-15T16:45:39.649Z,2.77
2017-08-15T16:48:07.165Z,2.70
2017-08-15T16:50:34.715Z,3.00
2017-08-15T16:53:02.295Z,3.00
2017-08-15T16:55:29.811Z,3.30
2017-08-15T16:57:57.327Z,2.60
2017-08-15T17:00:24.875Z,3.07
2017-08-15T17:02:53.185Z,2.73
2017-08-15T17:05:20.699Z,2.97
2017-08-15T17:07:48.245Z,2.57
2017-08-15T17:10:15.789Z,2.70
2017-08-15T17:12:43.345Z,3.90
2017-08-15T17:15:10.852Z,2.50
2017-08-15T17:17:38.377Z,3.13
2017-08-15T17:20:05.943Z,3.10
2017-08-15T17:22:33.459Z,2.97
2017-08-15T17:25:00.983Z,3.17
2017-08-15T17:27:29.299Z,3.33
2017-08-15T17:29:56.820Z,3.50
2017-08-15T17:32:24.323Z,2.63
2017-08-15T17:34:51.876Z,2.93
2017-08-15T17:37:19.390Z,3.50
2017-08-15T17:39:46.906Z,2.57
2017-08-15T17:42:14.451Z,3.20
2017-08-15T17:44:41.961Z,3.17
2017-08-15T17:47:09.522Z,3.10
2017-08-15T17:49:37.054Z,3.13
2017-08-15T17:52:04.604Z,3.23
2017-08-15T17:54:32.176Z,3.17
2017-08-15T17:57:00.472Z,3.53
2017-08-15T17:59:28.051Z,4.00
2017-08-15T18:01:55.616Z,3.80
2017-08-15T18:04:23.132Z,3.90
2017-08-15T18:06:51.412Z,3.53
2017-08-15T18:09:18.956Z,3.57
2017-08-15T18:11:46.475Z,3.50
2017-08-15T18:14:14.020Z,3.30
2017-08-15T18:16:41.578Z,3.33
2017-08-15T18:19:09.096Z,3.20
2017-08-15T18:21:36.630Z,3.10
2017-08-15T18:24:04.182Z,3.47
2017-08-15T18:26:31.701Z,3.80
2017-08-15T18:28:59.278Z,3.23
2017-08-15T18:31:26.795Z,3.67
2017-08-15T18:33:54.322Z,3.73
2017-08-15T18:36:21.859Z,3.77
2017-08-15T18:38:49.411Z,4.00
2017-08-15T18:41:16.925Z,3.70
2017-08-15T18:43:44.436Z,3.57
2017-08-15T18:46:11.984Z,3.00
2017-08-15T18:48:39.511Z,2.90
2017-08-15T18:51:07.063Z,2.83
2017-08-15T18:53:34.586Z,2.70
2017-08-15T18:56:02.940Z,3.30
2017-08-15T18:58:30.483Z,3.20
2017-08-15T19:00:58.008Z,3.33
2017-08-15T19:03:25.604Z,3.17
2017-08-15T19:05:53.124Z,3.20
2017-08-15T19:08:20.642Z,3.60
2017-08-15T19:10:48.200Z,2.87
2017-08-15T19:13:15.714Z,3.03
2017-08-15T19:15:43.304Z,3.10
2017-08-15T19:18:10.808Z,3.20
2017-08-15T19:20:38.328Z,3.30
2017-08-15T19:23:05.880Z,3.50
2017-08-15T19:25:33.448Z,3.77
2017-08-15T19:28:00.971Z,3.70
2017-08-15T19:30:28.494Z,3.37
2017-08-15T19:32:56.053Z,3.50
2017-08-15T19:35:23.622Z,3.20
2017-08-15T19:37:51.135Z,3.57
2017-08-15T19:40:18.649Z,3.87
2017-08-15T19:42:46.192Z,3.47
2017-08-15T19:45:13.716Z,4.00
2017-08-15T19:47:42.015Z,3.80
2017-08-15T19:50:09.567Z,3.20
2017-08-15T19:52:37.092Z,4.00
2017-08-15T19:55:04.679Z,3.80
2017-08-15T19:57:32.617Z,3.90
2017-08-15T20:00:00.855Z,3.83
2017-08-15T20:02:29.949Z,3.80
2017-08-15T20:04:57.518Z,3.70
2017-08-15T20:07:25.088Z,3.90
2017-08-15T20:09:52.604Z,4.03
2017-08-15T20:12:20.116Z,3.30
2017-08-15T20:14:47.658Z,3.97
2017-08-15T20:17:15.171Z,3.33
2017-08-15T20:19:42.840Z,3.83
2017-08-15T20:22:10.359Z,3.83
2017-08-15T20:24:37.872Z,3.60
2017-08-15T20:27:05.435Z,3.47
2017-08-15T20:29:33.004Z,3.70
2017-08-15T20:32:00.520Z,3.70
2017-08-15T20:34:28.079Z,4.10
2017-08-15T20:36:55.625Z,3.80
2017-08-15T20:39:23.176Z,3.30
2017-08-15T20:41:50.732Z,4.30
2017-08-15T20:44:19.035Z,4.00
2017-08-15T20:46:46.560Z,4.10
2017-08-15T20:49:14.944Z,3.90
2017-08-15T20:51:42.524Z,3.30
2017-08-15T20:54:10.107Z,3.93
2017-08-15T20:56:37.656Z,4.03
2017-08-15T20:59:05.177Z,3.20
2017-08-15T21:01:33.504Z,4.10
2017-08-15T21:04:01.078Z,4.57
2017-08-15T21:06:28.658Z,3.90
2017-08-15T21:08:57.346Z,3.63
2017-08-15T21:11:24.892Z,4.40
2017-08-15T21:13:52.413Z,4.50
2017-08-15T21:16:19.971Z,4.80
2017-08-15T21:18:47.492Z,4.00
2017-08-15T21:21:15.066Z,3.90
2017-08-15T21:23:42.588Z,3.40
2017-08-15T21:26:10.105Z,4.80
2017-08-15T21:28:37.652Z,4.33
2017-08-15T21:31:05.204Z,3.87
2017-08-15T21:33:32.733Z,4.27
2017-08-15T21:36:00.248Z,4.10
2017-08-15T21:38:27.805Z,3.97
2017-08-15T21:40:55.311Z,4.10
2017-08-15T21:43:22.852Z,3.23
2017-08-15T21:45:50.363Z,4.10
2017-08-15T21:48:17.905Z,4.20
2017-08-15T21:50:45.466Z,4.17
2017-08-15T21:53:12.977Z,4.67
2017-08-15T21:55:41.341Z,3.70
2017-08-15T21:58:09.797Z,4.30
2017-08-15T22:00:37.311Z,4.20
2017-08-15T22:03:04.868Z,4.00
2017-08-15T22:05:33.186Z,4.00
2017-08-15T22:08:00.697Z,3.90
2017-08-15T22:10:28.246Z,3.93
2017-08-15T22:12:55.767Z,3.83
2017-08-15T22:15:23.695Z,4.53
2017-08-15T22:17:51.212Z,4.50
2017-08-15T22:20:18.777Z,4.33
2017-08-15T22:22:47.059Z,4.07
2017-08-15T22:25:14.571Z,4.90
2017-08-15T22:27:42.291Z,4.17
2017-08-15T22:30:09.825Z,4.07
2017-08-15T22:32:38.332Z,4.70
2017-08-15T22:35:05.855Z,4.60
2017-08-15T22:37:33.369Z,5.50
2017-08-15T22:40:00.907Z,5.03
2017-08-15T22:42:28.473Z,5.73
2017-08-15T22:44:56.033Z,5.30
2017-08-15T22:47:23.552Z,5.50
2017-08-15T22:49:51.059Z,5.40
2017-08-15T22:52:18.639Z,5.87
2017-08-15T22:54:46.167Z,6.13
2017-08-15T22:57:13.967Z,6.03
2017-08-15T22:59:41.525Z,6.17
2017-08-15T23:02:09.082Z,7.40
2017-08-15T23:04:36.591Z,6.60
2017-08-15T23:07:04.144Z,7.10
2017-08-15T23:09:31.662Z,6.90
2017-08-15T23:11:59.181Z,6.80
2017-08-15T23:14:26.749Z,7.50
2017-08-15T23:16:54.280Z,8.80
2017-08-15T23:19:21.872Z,8.47
2017-08-15T23:21:49.392Z,9.13
2017-08-15T23:24:16.925Z,9.37
2017-08-15T23:26:44.505Z,9.20
2017-08-15T23:29:12.028Z,9.20
2017-08-15T23:31:39.552Z,9.37
2017-08-15T23:34:07.129Z,9.67
2017-08-15T23:36:34.657Z,8.17
2017-08-15T23:39:02.194Z,6.70
2017-08-15T23:41:29.745Z,7.20
2017-08-15T23:43:57.256Z,8.17
2017-08-15T23:46:24.820Z,7.97
2017-08-15T23:48:52.363Z,6.10
2017-08-15T23:51:19.921Z,6.03
2017-08-15T23:53:47.437Z,6.57
2017-08-15T23:56:15.003Z,6.20
2017-08-15T23:58:42.525Z,5.40
